createdAt,value
2023-03-16T00:00:54.053Z,2.65
2023-03-16T00:03:20.738Z,2.70
2023-03-16T00:05:47.769Z,2.40
2023-03-16T00:08:14.690Z,2.63
2023-03-16T00:10:41.128Z,2.90
2023-03-16T00:13:07.536Z,3.00
2023-03-16T00:15:33.977Z,2.72
2023-03-16T00:18:00.963Z,2.75
2023-03-16T00:20:27.581Z,2.63
2023-03-16T00:22:54.134Z,2.03
2023-03-16T00:25:20.571Z,2.00
2023-03-16T00:27:46.958Z,2.20
2023-03-16T00:30:17.210Z,2.60
2023-03-16T00:32:44.165Z,2.35
2023-03-16T00:35:10.817Z,2.15
2023-03-16T00:37:39.036Z,1.88
2023-03-16T00:40:05.725Z,1.83
2023-03-16T00:42:38.378Z,1.73
2023-03-16T00:45:05.118Z,2.10
2023-03-16T00:47:33.086Z,1.83
2023-03-16T00:50:02.769Z,1.33
2023-03-16T00:52:29.480Z,1.90
2023-03-16T00:54:56.332Z,2.10
2023-03-16T00:57:24.064Z,1.90
2023-03-16T00:59:50.919Z,2.10
2023-03-16T01:02:24.093Z,1.63
2023-03-16T01:04:54.047Z,1.98
2023-03-16T01:07:20.667Z,1.80
2023-03-16T01:09:57.030Z,1.80
2023-03-16T01:12:24.482Z,1.63
2023-03-16T01:14:54.076Z,2.00
2023-03-16T01:17:20.525Z,2.15
2023-03-16T01:19:54.035Z,2.13
2023-03-16T01:22:21.996Z,1.85
2023-03-16T01:24:48.379Z,2.35
2023-03-16T01:27:14.936Z,2.10
2023-03-16T01:29:41.818Z,1.83
2023-03-16T01:32:14.725Z,2.05
2023-03-16T01:34:53.644Z,2.00
2023-03-16T01:37:21.401Z,1.77
2023-03-16T01:39:51.413Z,2.40
2023-03-16T01:42:20.711Z,2.35
2023-03-16T01:44:51.687Z,2.80
2023-03-16T01:47:22.075Z,2.30
2023-03-16T01:49:50.547Z,1.85
2023-03-16T01:52:23.972Z,1.98
2023-03-16T01:54:52.911Z,2.28
2023-03-16T01:57:19.341Z,1.80
2023-03-16T02:00:09.095Z,2.05
2023-03-16T02:02:38.078Z,2.15
2023-03-16T02:05:13.407Z,2.25
2023-03-16T02:07:50.578Z,1.85
2023-03-16T02:10:23.094Z,1.83
2023-03-16T02:12:49.873Z,1.42
2023-03-16T02:15:16.284Z,1.85
2023-03-16T02:17:43.865Z,1.63
2023-03-16T02:20:43.925Z,1.88
2023-03-16T02:23:22.864Z,2.17
2023-03-16T02:26:09.116Z,1.95
2023-03-16T02:28:43.830Z,2.38
2023-03-16T02:31:11.159Z,1.55
2023-03-16T02:33:50.105Z,1.33
2023-03-16T02:36:19.586Z,1.52
2023-03-16T02:38:58.092Z,1.80
2023-03-16T02:41:27.755Z,1.80
2023-03-16T02:43:59.609Z,1.27
2023-03-16T02:46:35.029Z,1.50
2023-03-16T02:49:20.322Z,1.30
2023-03-16T02:51:46.948Z,1.10
2023-03-16T02:54:16.539Z,1.08
2023-03-16T02:56:44.184Z,1.70
2023-03-16T02:59:14.166Z,1.50
2023-03-16T03:01:42.239Z,1.10
2023-03-16T03:04:10.157Z,1.30
2023-03-16T03:06:36.661Z,1.23
2023-03-16T03:09:09.797Z,1.15
2023-03-16T03:11:38.215Z,1.17
2023-03-16T03:14:05.085Z,1.10
2023-03-16T03:16:33.283Z,1.50
2023-03-16T03:19:01.301Z,1.25
2023-03-16T03:21:27.807Z,1.20
2023-03-16T03:24:00.209Z,1.05
2023-03-16T03:26:29.256Z,1.05
2023-03-16T03:28:58.546Z,1.40
2023-03-16T03:31:28.825Z,1.30
2023-03-16T03:33:55.358Z,0.90
2023-03-16T03:36:21.806Z,0.93
2023-03-16T03:38:52.880Z,0.90
2023-03-16T03:41:19.315Z,0.98
2023-03-16T03:43:45.736Z,0.85
2023-03-16T03:46:12.362Z,1.13
2023-03-16T03:48:47.459Z,0.70
2023-03-16T03:53:49.184Z,0.82
2023-03-16T03:56:19.130Z,1.00
2023-03-16T03:58:47.152Z,1.52
2023-03-16T04:01:13.675Z,1.38
2023-03-16T04:03:41.988Z,1.08
2023-03-16T04:06:09.972Z,0.90
2023-03-16T04:08:46.554Z,1.02
2023-03-16T04:11:12.972Z,1.00
2023-03-16T04:13:42.151Z,0.93
2023-03-16T04:16:09.431Z,0.98
2023-03-16T04:18:38.289Z,1.38
2023-03-16T04:21:13.042Z,1.00
2023-03-16T04:26:05.874Z,0.90
2023-03-16T04:28:32.485Z,1.00
2023-03-16T04:31:03.081Z,1.27
2023-03-16T04:33:29.605Z,0.65
2023-03-16T04:35:56.154Z,0.90
2023-03-16T04:38:27.393Z,1.00
2023-03-16T04:40:54.231Z,1.13
2023-03-16T04:43:26.614Z,0.90
2023-03-16T04:45:53.098Z,1.20
2023-03-16T04:48:19.541Z,1.00
2023-03-16T04:50:51.234Z,0.90
2023-03-16T04:53:21.602Z,1.50
2023-03-16T04:55:47.985Z,1.40
2023-03-16T04:58:15.162Z,0.90
2023-03-16T05:00:51.326Z,0.93
2023-03-16T05:03:21.279Z,1.30
2023-03-16T05:05:48.709Z,1.85
2023-03-16T05:08:16.210Z,1.40
2023-03-16T05:10:42.671Z,1.60
2023-03-16T05:13:09.108Z,1.95
2023-03-16T05:15:43.164Z,1.58
2023-03-16T05:18:09.598Z,1.50
2023-03-16T05:20:36.089Z,1.23
2023-03-16T05:23:02.512Z,2.20
2023-03-16T05:25:32.240Z,1.38
2023-03-16T05:28:04.802Z,1.35
2023-03-16T05:30:37.380Z,1.25
2023-03-16T05:33:03.977Z,2.00
2023-03-16T05:35:31.152Z,1.45
2023-03-16T05:37:57.626Z,1.65
2023-03-16T05:40:24.039Z,1.88
2023-03-16T05:42:54.923Z,1.40
2023-03-16T05:45:21.491Z,1.80
2023-03-16T05:47:53.845Z,2.03
2023-03-16T05:50:20.433Z,1.45
2023-03-16T05:52:47.183Z,1.50
2023-03-16T05:55:14.952Z,1.50
2023-03-16T05:57:41.756Z,1.33
2023-03-16T06:00:16.637Z,1.58
2023-03-16T06:02:48.393Z,1.35
2023-03-16T06:05:15.370Z,1.80
2023-03-16T06:07:41.912Z,1.20
2023-03-16T06:10:09.028Z,1.50
2023-03-16T06:12:35.456Z,1.30
2023-03-16T06:15:02.454Z,1.80
2023-03-16T06:17:28.953Z,1.27
2023-03-16T06:19:55.551Z,1.38
2023-03-16T06:22:22.138Z,1.95
2023-03-16T06:24:48.569Z,2.10
2023-03-16T06:27:16.247Z,2.47
2023-03-16T06:29:42.696Z,1.90
2023-03-16T06:32:09.157Z,2.00
2023-03-16T06:34:37.648Z,1.75
2023-03-16T06:37:04.823Z,1.85
2023-03-16T06:39:31.248Z,1.52
2023-03-16T06:41:57.992Z,1.70
2023-03-16T06:44:26.327Z,1.98
2023-03-16T06:47:06.107Z,1.67
2023-03-16T06:49:32.639Z,1.70
2023-03-16T06:51:59.101Z,1.27
2023-03-16T06:54:29.751Z,1.42
2023-03-16T06:57:01.058Z,2.13
2023-03-16T06:59:32.284Z,2.30
2023-03-16T07:02:02.237Z,1.70
2023-03-16T07:04:28.774Z,1.40
2023-03-16T07:06:56.317Z,1.38
2023-03-16T07:09:28.813Z,1.25
2023-03-16T07:12:03.411Z,1.33
2023-03-16T07:14:48.878Z,1.60
2023-03-16T07:17:21.461Z,1.50
2023-03-16T07:19:47.951Z,1.30
2023-03-16T07:22:14.432Z,1.80
2023-03-16T07:24:40.887Z,1.98
2023-03-16T07:27:07.349Z,1.90
2023-03-16T07:29:44.370Z,2.10
2023-03-16T07:32:10.921Z,2.42
2023-03-16T07:34:37.352Z,1.95
2023-03-16T07:37:03.774Z,2.42
2023-03-16T07:39:39.348Z,2.33
2023-03-16T07:42:05.875Z,1.67
2023-03-16T07:44:33.260Z,1.67
2023-03-16T07:47:02.443Z,2.13
2023-03-16T07:49:28.895Z,1.65
2023-03-16T07:51:56.346Z,1.83
2023-03-16T07:54:22.873Z,1.98
2023-03-16T07:56:50.017Z,2.00
2023-03-16T07:59:19.238Z,2.00
2023-03-16T08:01:47.220Z,2.30
2023-03-16T08:04:13.707Z,1.60
2023-03-16T08:06:40.445Z,2.15
2023-03-16T08:09:08.304Z,1.50
2023-03-16T08:11:42.639Z,1.88
2023-03-16T08:14:12.330Z,1.98
2023-03-16T08:16:38.872Z,1.83
2023-03-16T08:19:05.409Z,1.60
2023-03-16T08:21:35.096Z,1.33
2023-03-16T08:24:08.984Z,1.33
2023-03-16T08:26:45.819Z,1.40
2023-03-16T08:29:12.344Z,1.52
2023-03-16T08:34:10.828Z,1.10
2023-03-16T08:36:38.189Z,1.42
2023-03-16T08:39:09.215Z,1.02
2023-03-16T08:41:35.991Z,1.30
2023-03-16T08:44:06.444Z,1.00
2023-03-16T08:46:32.967Z,1.17
2023-03-16T08:49:11.291Z,1.20
2023-03-16T08:51:40.682Z,0.85
2023-03-16T08:54:07.134Z,0.98
2023-03-16T08:56:39.330Z,1.08
2023-03-16T08:59:19.873Z,0.80
2023-03-16T09:01:56.513Z,0.70
2023-03-16T09:04:23.076Z,1.02
2023-03-16T09:07:02.279Z,0.60
2023-03-16T09:09:38.443Z,0.50
2023-03-16T09:12:05.488Z,1.00
2023-03-16T09:14:32.150Z,0.70
2023-03-16T09:16:58.919Z,1.00
2023-03-16T09:19:49.963Z,0.68
2023-03-16T09:22:28.202Z,0.68
2023-03-16T09:25:02.413Z,0.70
2023-03-16T09:27:28.903Z,0.60
2023-03-16T09:29:58.530Z,0.60
2023-03-16T09:32:24.977Z,0.75
2023-03-16T09:35:08.723Z,0.68
2023-03-16T09:37:44.973Z,0.70
2023-03-16T09:40:40.521Z,0.90
2023-03-16T09:43:28.348Z,0.70
2023-03-16T09:46:16.155Z,0.60
2023-03-16T09:48:43.104Z,0.50
2023-03-16T09:51:21.860Z,0.57
2023-03-16T09:54:01.036Z,0.80
2023-03-16T09:56:42.004Z,0.65
2023-03-16T09:59:13.640Z,0.77
2023-03-16T10:01:46.053Z,0.80
2023-03-16T10:04:18.524Z,1.00
2023-03-16T10:07:14.915Z,0.63
2023-03-16T10:10:16.090Z,0.70
2023-03-16T10:12:45.655Z,0.70
2023-03-16T10:15:34.043Z,0.63
2023-03-16T10:18:35.530Z,0.70
2023-03-16T10:21:02.739Z,0.70
2023-03-16T10:23:30.934Z,0.90
2023-03-16T10:26:04.587Z,1.05
2023-03-16T10:31:12.925Z,0.88
2023-03-16T10:33:39.656Z,0.70
2023-03-16T10:36:35.752Z,1.00
2023-03-16T10:39:30.228Z,1.00
2023-03-16T10:42:04.612Z,1.42
2023-03-16T10:44:33.211Z,0.90
2023-03-16T10:47:07.628Z,0.85
2023-03-16T10:52:13.392Z,1.00
2023-03-16T10:54:43.423Z,1.30
2023-03-16T10:57:42.400Z,0.90
2023-03-16T11:00:14.582Z,1.02
2023-03-16T11:02:42.277Z,1.40
2023-03-16T11:05:32.453Z,1.10
2023-03-16T11:08:11.895Z,1.50
2023-03-16T11:10:54.603Z,1.20
2023-03-16T11:13:22.419Z,1.30
2023-03-16T11:15:57.874Z,1.77
2023-03-16T11:18:28.401Z,1.17
2023-03-16T11:20:58.119Z,1.35
2023-03-16T11:23:39.172Z,1.30
2023-03-16T11:26:23.017Z,1.17
2023-03-16T11:31:37.235Z,1.40
2023-03-16T11:34:03.683Z,1.20
2023-03-16T11:36:40.859Z,1.42
2023-03-16T11:39:35.459Z,1.20
2023-03-16T11:42:27.593Z,1.60
2023-03-16T11:45:03.054Z,1.88
2023-03-16T11:47:36.606Z,1.50
2023-03-16T11:50:02.971Z,1.57
2023-03-16T11:52:32.249Z,1.40
2023-03-16T11:55:01.421Z,1.40
2023-03-16T11:57:42.818Z,1.30
2023-03-16T12:00:34.114Z,1.52
2023-03-16T12:03:14.873Z,1.02
2023-03-16T12:06:20.603Z,1.70
2023-03-16T12:09:10.204Z,1.63
2023-03-16T12:11:42.060Z,1.30
2023-03-16T12:14:31.687Z,1.10
2023-03-16T12:17:02.467Z,1.17
2023-03-16T12:20:01.432Z,1.23
2023-03-16T12:22:43.026Z,1.15
2023-03-16T12:25:29.933Z,1.00
2023-03-16T12:28:05.438Z,1.00
2023-03-16T12:30:46.744Z,1.35
2023-03-16T12:33:31.866Z,1.10
2023-03-16T12:35:59.713Z,0.88
2023-03-16T12:38:48.139Z,0.88
2023-03-16T12:41:36.151Z,1.23
2023-03-16T12:44:21.265Z,1.02
2023-03-16T12:47:04.148Z,0.90
2023-03-16T12:49:32.883Z,1.10
2023-03-16T12:52:01.573Z,1.15
2023-03-16T12:54:34.021Z,0.80
2023-03-16T12:57:14.479Z,1.02
2023-03-16T12:59:50.333Z,0.80
2023-03-16T13:02:17.719Z,0.68
2023-03-16T13:04:46.574Z,0.90
2023-03-16T13:07:24.480Z,0.95
2023-03-16T13:10:10.858Z,1.02
2023-03-16T13:12:38.015Z,0.90
2023-03-16T13:18:12.418Z,0.80
2023-03-16T13:20:47.932Z,0.90
2023-03-16T13:23:17.335Z,0.77
2023-03-16T13:25:45.532Z,1.00
2023-03-16T13:28:13.705Z,0.70
2023-03-16T13:30:52.165Z,0.88
2023-03-16T13:33:26.233Z,0.70
2023-03-16T13:35:58.837Z,0.82
2023-03-16T13:38:26.076Z,0.93
2023-03-16T13:40:53.981Z,0.90
2023-03-16T13:43:23.045Z,1.23
2023-03-16T13:45:50.486Z,1.02
2023-03-16T13:48:17.585Z,0.75
2023-03-16T13:50:50.763Z,0.73
2023-03-16T13:53:21.162Z,1.07
2023-03-16T13:55:48.058Z,1.00
2023-03-16T13:58:26.072Z,1.10
2023-03-16T14:00:57.275Z,0.90
2023-03-16T14:03:29.981Z,1.63
2023-03-16T14:05:57.261Z,0.95
2023-03-16T14:08:24.243Z,0.80
2023-03-16T14:10:51.553Z,0.60
2023-03-16T14:13:25.781Z,0.80
2023-03-16T14:16:16.594Z,1.05
2023-03-16T14:18:48.100Z,0.80
2023-03-16T14:21:32.824Z,1.00
2023-03-16T14:24:23.007Z,1.02
2023-03-16T14:26:57.884Z,0.93
2023-03-16T14:29:26.849Z,0.60
2023-03-16T14:31:53.386Z,0.80
2023-03-16T14:34:30.810Z,0.98
2023-03-16T14:37:16.704Z,0.85
2023-03-16T14:39:43.421Z,0.80
2023-03-16T14:42:41.538Z,0.60
2023-03-16T14:45:20.805Z,1.02
2023-03-16T14:48:00.252Z,0.88
2023-03-16T14:50:41.067Z,0.93
2023-03-16T14:53:11.693Z,1.25
2023-03-16T14:55:46.893Z,1.02
2023-03-16T14:58:13.495Z,0.82
2023-03-16T15:00:52.727Z,0.90
2023-03-16T15:03:30.553Z,0.88
2023-03-16T15:05:57.845Z,0.70
2023-03-16T15:08:30.122Z,1.00
2023-03-16T15:11:00.065Z,0.82
2023-03-16T15:13:26.557Z,1.00
2023-03-16T15:15:53.805Z,1.05
2023-03-16T15:18:20.228Z,1.08
2023-03-16T15:20:46.610Z,0.90
2023-03-16T15:23:28.800Z,0.80
2023-03-16T15:25:57.873Z,0.90
2023-03-16T15:28:25.158Z,0.70
2023-03-16T15:30:52.899Z,0.90
2023-03-16T15:33:19.792Z,0.82
2023-03-16T15:35:47.733Z,0.80
2023-03-16T15:41:12.995Z,0.82
2023-03-16T15:43:39.684Z,0.90
2023-03-16T15:46:21.420Z,1.23
2023-03-16T15:48:48.742Z,1.00
2023-03-16T15:51:29.510Z,0.80
2023-03-16T15:54:13.397Z,1.02
2023-03-16T15:56:52.803Z,0.70
2023-03-16T15:59:31.573Z,1.40
2023-03-16T16:02:17.728Z,1.27
2023-03-16T16:04:44.240Z,1.10
2023-03-16T16:07:10.868Z,1.00
2023-03-16T16:09:37.510Z,1.02
2023-03-16T16:12:04.762Z,1.10
2023-03-16T16:14:31.197Z,1.13
2023-03-16T16:17:01.284Z,1.00
2023-03-16T16:19:27.723Z,1.10
2023-03-16T16:22:03.777Z,0.90
2023-03-16T16:24:30.156Z,1.00
2023-03-16T16:27:04.004Z,0.85
2023-03-16T16:29:31.209Z,0.80
2023-03-16T16:31:57.798Z,0.90
2023-03-16T16:34:30.727Z,1.00
2023-03-16T16:37:06.704Z,0.70
2023-03-16T16:39:35.734Z,0.80
2023-03-16T16:42:02.167Z,1.00
2023-03-16T16:44:43.732Z,0.98
2023-03-16T16:47:18.638Z,1.10
2023-03-16T16:49:45.352Z,0.88
2023-03-16T16:52:22.771Z,0.98
2023-03-16T16:54:49.210Z,1.20
2023-03-16T16:57:19.444Z,1.17
2023-03-16T16:59:57.815Z,1.65
2023-03-16T17:02:32.099Z,0.90
2023-03-16T17:04:59.280Z,1.10
2023-03-16T17:07:29.441Z,1.10
2023-03-16T17:09:55.871Z,1.23
2023-03-16T17:12:33.781Z,1.10
2023-03-16T17:15:00.520Z,1.35
2023-03-16T17:17:27.793Z,1.10
2023-03-16T17:19:54.202Z,1.17
2023-03-16T17:22:25.254Z,1.40
2023-03-16T17:24:52.057Z,1.95
2023-03-16T17:30:26.213Z,1.65
2023-03-16T17:33:04.626Z,1.30
2023-03-16T17:35:32.897Z,1.45
2023-03-16T17:37:59.471Z,1.40
2023-03-16T17:40:25.877Z,1.58
2023-03-16T17:42:53.170Z,1.50
2023-03-16T17:45:21.001Z,1.38
2023-03-16T17:47:47.783Z,1.77
2023-03-16T17:50:16.957Z,1.40
2023-03-16T17:52:43.374Z,1.23
2023-03-16T17:55:09.853Z,1.00
2023-03-16T17:57:43.688Z,1.67
2023-03-16T18:00:30.178Z,1.30
2023-03-16T18:02:58.931Z,1.70
2023-03-16T18:05:44.080Z,1.52
2023-03-16T18:08:13.917Z,1.20
2023-03-16T18:10:56.244Z,1.50
2023-03-16T18:13:38.306Z,1.50
2023-03-16T18:16:05.492Z,1.63
2023-03-16T18:21:17.557Z,1.70
2023-03-16T18:23:44.103Z,1.73
2023-03-16T18:26:11.005Z,1.45
2023-03-16T18:28:37.555Z,1.20
2023-03-16T18:31:08.935Z,1.80
2023-03-16T18:33:37.134Z,1.48
2023-03-16T18:36:10.280Z,1.52
2023-03-16T18:38:48.842Z,1.90
2023-03-16T18:41:27.480Z,1.63
2023-03-16T18:43:58.708Z,1.17
2023-03-16T18:46:27.878Z,1.88
2023-03-16T18:49:04.773Z,1.60
2023-03-16T18:51:32.629Z,1.80
2023-03-16T18:53:59.080Z,2.00
2023-03-16T18:56:26.622Z,2.35
2023-03-16T18:58:56.909Z,1.83
2023-03-16T19:01:25.544Z,1.92
2023-03-16T19:03:56.455Z,1.88
2023-03-16T19:06:31.890Z,2.20
2023-03-16T19:09:10.364Z,2.08
2023-03-16T19:11:39.731Z,2.72
2023-03-16T19:14:25.919Z,2.53
2023-03-16T19:16:52.989Z,2.38
2023-03-16T19:19:26.343Z,3.08
2023-03-16T19:22:08.226Z,2.65
2023-03-16T19:24:41.355Z,2.53
2023-03-16T19:27:27.933Z,2.30
2023-03-16T19:29:55.990Z,3.08
2023-03-16T19:32:22.526Z,3.08
2023-03-16T19:34:54.911Z,2.55
2023-03-16T19:37:28.088Z,3.03
2023-03-16T19:42:29.964Z,2.65
2023-03-16T19:44:56.646Z,2.63
2023-03-16T19:47:34.550Z,3.05
2023-03-16T19:50:01.934Z,3.00
2023-03-16T19:52:34.270Z,3.45
2023-03-16T19:55:01.885Z,3.58
2023-03-16T19:57:49.305Z,3.03
2023-03-16T20:00:21.065Z,2.92
2023-03-16T20:02:54.508Z,3.30
2023-03-16T20:05:25.912Z,3.30
2023-03-16T20:07:53.212Z,2.70
2023-03-16T20:10:27.713Z,3.17
2023-03-16T20:13:02.750Z,3.47
2023-03-16T20:15:38.043Z,2.88
2023-03-16T20:18:05.166Z,3.40
2023-03-16T20:20:32.521Z,3.20
2023-03-16T20:23:14.481Z,2.85
2023-03-16T20:25:41.695Z,3.55
2023-03-16T20:28:21.048Z,4.25
2023-03-16T20:30:55.960Z,4.40
2023-03-16T20:33:26.052Z,3.80
2023-03-16T20:35:52.835Z,4.15
2023-03-16T20:38:19.594Z,4.18
2023-03-16T20:40:55.873Z,3.55
2023-03-16T20:43:24.901Z,4.25
2023-03-16T20:46:06.640Z,3.80
2023-03-16T20:51:05.102Z,4.50
2023-03-16T20:53:38.487Z,4.20
2023-03-16T20:56:15.137Z,4.00
2023-03-16T20:58:48.078Z,3.72
2023-03-16T21:01:16.018Z,3.42
2023-03-16T21:06:25.492Z,4.10
2023-03-16T21:08:58.814Z,3.80
2023-03-16T21:11:31.107Z,4.43
2023-03-16T21:14:00.568Z,4.03
2023-03-16T21:16:31.564Z,3.90
2023-03-16T21:18:58.932Z,4.68
2023-03-16T21:21:28.269Z,3.90
2023-03-16T21:24:03.509Z,3.92
2023-03-16T21:26:33.123Z,3.90
2023-03-16T21:29:19.012Z,3.95
2023-03-16T21:31:57.653Z,3.80
2023-03-16T21:34:28.951Z,3.33
2023-03-16T21:37:04.258Z,3.50
2023-03-16T21:39:30.728Z,3.65
2023-03-16T21:42:02.417Z,4.40
2023-03-16T21:44:29.838Z,3.88
2023-03-16T21:47:08.510Z,3.83
2023-03-16T21:49:42.475Z,3.40
2023-03-16T21:52:26.762Z,3.30
2023-03-16T21:54:54.029Z,3.58
2023-03-16T21:57:21.432Z,3.85
2023-03-16T21:59:56.727Z,4.00
2023-03-16T22:02:27.076Z,3.33
2023-03-16T22:04:57.086Z,3.70
2023-03-16T22:07:23.857Z,3.53
2023-03-16T22:09:53.492Z,4.07
2023-03-16T22:12:20.502Z,3.47
2023-03-16T22:14:47.417Z,3.33
2023-03-16T22:19:57.271Z,3.00
2023-03-16T22:22:23.909Z,2.83
2023-03-16T22:24:55.908Z,2.85
2023-03-16T22:27:29.515Z,3.22
2023-03-16T22:30:06.824Z,2.97
2023-03-16T22:32:38.927Z,2.70
2023-03-16T22:35:09.848Z,2.40
2023-03-16T22:37:38.796Z,3.25
2023-03-16T22:40:18.419Z,3.08
2023-03-16T22:42:45.103Z,3.53
2023-03-16T22:45:17.632Z,2.90
2023-03-16T22:47:49.508Z,2.95
2023-03-16T22:50:22.303Z,2.80
2023-03-16T22:52:55.845Z,2.58
2023-03-16T22:55:23.740Z,2.45
2023-03-16T22:57:59.979Z,3.20
2023-03-16T23:00:29.276Z,3.15
2023-03-16T23:03:11.894Z,3.67
2023-03-16T23:05:39.055Z,2.92
2023-03-16T23:08:15.306Z,3.00
2023-03-16T23:10:50.251Z,2.35
2023-03-16T23:13:24.540Z,3.40
2023-03-16T23:15:53.083Z,2.88
2023-03-16T23:18:21.157Z,3.28
2023-03-16T23:23:22.087Z,2.97
2023-03-16T23:25:58.075Z,3.00
2023-03-16T23:28:24.521Z,3.10
2023-03-16T23:31:03.473Z,2.53
2023-03-16T23:33:30.291Z,2.13
2023-03-16T23:35:58.388Z,2.72
2023-03-16T23:38:30.926Z,2.85
2023-03-16T23:41:05.407Z,2.40
2023-03-16T23:43:39.895Z,2.30
2023-03-16T23:46:11.679Z,2.30
2023-03-16T23:48:42.692Z,2.40
2023-03-16T23:51:32.851Z,2.10
2023-03-16T23:54:00.141Z,2.28
2023-03-16T23:56:28.121Z,2.60
2023-03-16T23:59:04.318Z,2.20
